createdAt,value
2022-09-21T00:00:37.891Z,1.70
2022-09-21T00:03:05.049Z,2.05
2022-09-21T00:05:32.494Z,1.60
2022-09-21T00:08:03.319Z,2.10
2022-09-21T00:10:30.843Z,1.80
2022-09-21T00:12:58.743Z,1.58
2022-09-21T00:15:25.789Z,2.25
2022-09-21T00:17:56.080Z,1.70
2022-09-21T00:20:24.267Z,1.75
2022-09-21T00:22:51.486Z,1.65
2022-09-21T00:25:19.175Z,1.83
2022-09-21T00:27:52.377Z,1.80
2022-09-21T00:30:19.136Z,1.80
2022-09-21T00:32:45.835Z,1.65
2022-09-21T00:35:12.450Z,1.80
2022-09-21T00:37:41.318Z,1.98
2022-09-21T00:40:08.197Z,1.70
2022-09-21T00:42:35.271Z,2.10
2022-09-21T00:45:02.022Z,1.80
2022-09-21T00:47:28.634Z,1.90
2022-09-21T00:49:56.274Z,2.05
2022-09-21T00:52:24.288Z,2.17
2022-09-21T00:54:55.998Z,1.90
2022-09-21T00:57:24.446Z,1.80
2022-09-21T00:59:54.578Z,2.30
2022-09-21T01:02:21.815Z,1.70
2022-09-21T01:04:53.903Z,1.80
2022-09-21T01:07:23.144Z,1.85
2022-09-21T01:09:52.036Z,2.28
2022-09-21T01:12:25.116Z,2.00
2022-09-21T01:15:06.956Z,1.37
2022-09-21T01:17:47.509Z,1.80
2022-09-21T01:20:33.097Z,1.52
2022-09-21T01:23:02.490Z,2.20
2022-09-21T01:25:37.558Z,1.90
2022-09-21T01:28:04.335Z,1.80
2022-09-21T01:30:31.741Z,1.70
2022-09-21T01:33:06.712Z,1.83
2022-09-21T01:35:37.697Z,2.05
2022-09-21T01:38:15.046Z,1.85
2022-09-21T01:40:43.632Z,1.85
2022-09-21T01:43:12.724Z,2.10
2022-09-21T01:45:41.254Z,1.73
2022-09-21T01:48:08.271Z,1.85
2022-09-21T01:50:38.476Z,1.80
2022-09-21T01:53:11.475Z,1.92
2022-09-21T01:55:43.797Z,1.90
2022-09-21T01:58:22.556Z,1.95
2022-09-21T02:00:54.760Z,1.63
2022-09-21T02:03:25.300Z,1.48
2022-09-21T02:05:51.955Z,1.60
2022-09-21T02:08:18.503Z,1.77
2022-09-21T02:10:47.407Z,1.67
2022-09-21T02:13:16.655Z,1.85
2022-09-21T02:16:04.500Z,2.13
2022-09-21T02:18:31.094Z,2.15
2022-09-21T02:20:59.300Z,1.70
2022-09-21T02:23:28.899Z,1.90
2022-09-21T02:26:07.998Z,2.03
2022-09-21T02:28:53.775Z,1.80
2022-09-21T02:31:41.054Z,1.60
2022-09-21T02:34:16.964Z,2.13
2022-09-21T02:36:46.478Z,1.45
2022-09-21T02:39:17.610Z,2.20
2022-09-21T02:41:51.533Z,1.45
2022-09-21T02:44:26.302Z,1.67
2022-09-21T02:46:58.481Z,1.52
2022-09-21T02:49:27.967Z,1.92
2022-09-21T02:51:58.502Z,1.92
2022-09-21T02:54:26.860Z,1.75
2022-09-21T02:56:54.525Z,1.77
2022-09-21T02:59:23.599Z,1.60
2022-09-21T03:01:51.408Z,2.17
2022-09-21T03:04:18.195Z,1.73
2022-09-21T03:06:44.750Z,2.08
2022-09-21T03:09:11.262Z,1.83
2022-09-21T03:11:37.864Z,1.90
2022-09-21T03:14:07.149Z,1.80
2022-09-21T03:16:37.064Z,1.63
2022-09-21T03:19:03.509Z,1.63
2022-09-21T03:21:30.203Z,1.80
2022-09-21T03:23:56.750Z,1.90
2022-09-21T03:26:23.323Z,1.73
2022-09-21T03:28:54.707Z,1.85
2022-09-21T03:31:22.431Z,1.83
2022-09-21T03:33:49.679Z,1.65
2022-09-21T03:36:16.371Z,1.52
2022-09-21T03:38:42.934Z,1.60
2022-09-21T03:41:09.456Z,1.67
2022-09-21T03:43:35.936Z,1.85
2022-09-21T03:46:02.753Z,1.70
2022-09-21T03:48:29.397Z,1.88
2022-09-21T03:50:55.928Z,1.52
2022-09-21T03:53:22.447Z,1.50
2022-09-21T03:55:49.597Z,1.88
2022-09-21T03:58:16.327Z,1.73
2022-09-21T04:00:42.999Z,1.60
2022-09-21T04:03:09.497Z,1.85
2022-09-21T04:05:36.083Z,1.77
2022-09-21T04:08:02.651Z,1.85
2022-09-21T04:10:32.787Z,1.60
2022-09-21T04:13:01.322Z,1.80
2022-09-21T04:15:29.260Z,1.70
2022-09-21T04:17:55.847Z,1.58
2022-09-21T04:20:22.757Z,1.60
2022-09-21T04:22:49.519Z,1.90
2022-09-21T04:25:16.114Z,1.80
2022-09-21T04:27:42.810Z,1.50
2022-09-21T04:30:11.306Z,1.27
2022-09-21T04:32:37.883Z,1.40
2022-09-21T04:35:04.695Z,1.23
2022-09-21T04:37:31.175Z,1.67
2022-09-21T04:39:57.930Z,1.67
2022-09-21T04:42:24.581Z,2.00
2022-09-21T04:44:51.646Z,1.95
2022-09-21T04:47:18.174Z,1.70
2022-09-21T04:49:44.761Z,1.77
2022-09-21T04:52:12.920Z,1.70
2022-09-21T04:54:42.285Z,1.60
2022-09-21T04:57:08.991Z,1.70
2022-09-21T04:59:35.458Z,1.80
2022-09-21T05:02:02.068Z,1.60
2022-09-21T05:04:29.757Z,1.55
2022-09-21T05:06:58.593Z,1.65
2022-09-21T05:09:44.446Z,1.77
2022-09-21T05:12:11.201Z,2.25
2022-09-21T05:14:37.784Z,1.70
2022-09-21T05:17:04.307Z,1.42
2022-09-21T05:19:31.165Z,1.50
2022-09-21T05:21:57.647Z,1.73
2022-09-21T05:24:24.635Z,1.73
2022-09-21T05:26:51.158Z,2.00
2022-09-21T05:29:17.772Z,1.60
2022-09-21T05:31:45.303Z,1.50
2022-09-21T05:34:12.271Z,1.80
2022-09-21T05:36:43.097Z,1.60
2022-09-21T05:39:09.822Z,1.40
2022-09-21T05:41:36.701Z,1.80
2022-09-21T05:44:03.386Z,1.52
2022-09-21T05:46:32.994Z,1.80
2022-09-21T05:49:14.980Z,1.90
2022-09-21T05:51:46.621Z,1.85
2022-09-21T05:54:28.507Z,1.67
2022-09-21T05:57:07.114Z,1.70
2022-09-21T05:59:36.799Z,2.13
2022-09-21T06:02:06.431Z,1.70
2022-09-21T06:04:33.214Z,1.70
2022-09-21T06:06:59.767Z,2.40
2022-09-21T06:09:26.811Z,2.05
2022-09-21T06:11:53.819Z,2.20
2022-09-21T06:14:24.673Z,1.95
2022-09-21T06:16:51.424Z,2.50
2022-09-21T06:19:18.707Z,2.50
2022-09-21T06:21:45.532Z,2.88
2022-09-21T06:24:12.114Z,2.53
2022-09-21T06:26:38.757Z,2.90
2022-09-21T06:29:07.847Z,2.63
2022-09-21T06:31:34.813Z,2.55
2022-09-21T06:34:01.508Z,2.95
2022-09-21T06:36:28.181Z,2.42
2022-09-21T06:38:55.881Z,2.80
2022-09-21T06:41:22.385Z,2.78
2022-09-21T06:43:49.109Z,2.53
2022-09-21T06:46:15.730Z,2.72
2022-09-21T06:48:42.403Z,2.80
2022-09-21T06:51:09.980Z,2.53
2022-09-21T06:53:36.568Z,3.25
2022-09-21T06:56:07.664Z,4.97
2022-09-21T06:58:34.679Z,7.28
2022-09-21T07:01:08.435Z,6.63
2022-09-21T07:03:35.288Z,6.72
2022-09-21T07:06:02.006Z,7.57
2022-09-21T07:11:15.257Z,7.80
2022-09-21T07:13:42.534Z,8.55
2022-09-21T07:16:10.051Z,8.20
2022-09-21T07:18:43.658Z,8.90
2022-09-21T07:21:11.409Z,7.78
2022-09-21T07:23:38.032Z,8.77
2022-09-21T07:26:12.457Z,6.40
2022-09-21T07:28:39.036Z,7.78
2022-09-21T07:31:06.561Z,6.72
2022-09-21T07:33:36.014Z,6.43
2022-09-21T07:36:09.921Z,6.03
2022-09-21T07:38:39.822Z,6.47
2022-09-21T07:41:07.245Z,6.50
2022-09-21T07:43:34.275Z,5.55
2022-09-21T07:46:02.242Z,5.25
2022-09-21T07:48:29.163Z,6.22
2022-09-21T07:51:00.140Z,5.50
2022-09-21T07:53:26.751Z,5.53
2022-09-21T07:55:53.245Z,4.03
2022-09-21T07:58:39.252Z,5.00
2022-09-21T08:01:06.712Z,4.78
2022-09-21T08:03:33.749Z,4.50
2022-09-21T08:06:00.350Z,4.90
2022-09-21T08:08:26.898Z,4.85
2022-09-21T08:10:54.616Z,4.95
2022-09-21T08:13:21.193Z,5.05
2022-09-21T08:15:50.150Z,4.82
2022-09-21T08:18:17.002Z,4.22
2022-09-21T08:20:44.065Z,4.05
2022-09-21T08:23:11.932Z,4.60
2022-09-21T08:25:38.417Z,4.68
2022-09-21T08:28:09.409Z,4.90
2022-09-21T08:30:36.410Z,4.85
2022-09-21T08:33:03.669Z,5.88
2022-09-21T08:35:30.470Z,4.40
2022-09-21T08:37:56.982Z,5.43
2022-09-21T08:40:23.990Z,4.72
2022-09-21T08:42:56.841Z,3.75
2022-09-21T08:45:25.172Z,4.32
2022-09-21T08:47:53.732Z,4.75
2022-09-21T08:50:29.755Z,4.88
2022-09-21T08:53:25.920Z,4.35
2022-09-21T08:55:55.461Z,4.13
2022-09-21T08:58:26.133Z,4.95
2022-09-21T09:01:11.600Z,4.28
2022-09-21T09:03:40.938Z,3.88
2022-09-21T09:06:23.504Z,4.50
2022-09-21T09:09:02.291Z,4.20
2022-09-21T09:11:34.758Z,3.88
2022-09-21T09:14:07.290Z,4.38
2022-09-21T09:16:38.833Z,4.30
2022-09-21T09:19:24.394Z,4.45
2022-09-21T09:21:51.229Z,3.55
2022-09-21T09:24:22.620Z,3.55
2022-09-21T09:26:51.569Z,4.50
2022-09-21T09:29:18.201Z,3.65
2022-09-21T09:31:45.302Z,3.13
2022-09-21T09:34:18.453Z,4.30
2022-09-21T09:36:58.264Z,3.83
2022-09-21T09:39:26.836Z,3.63
2022-09-21T09:41:56.558Z,3.30
2022-09-21T09:44:42.016Z,3.83
2022-09-21T09:47:20.650Z,3.08
2022-09-21T09:49:47.420Z,3.20
2022-09-21T09:52:15.115Z,3.03
2022-09-21T09:54:41.712Z,3.17
2022-09-21T09:57:09.308Z,3.45
2022-09-21T09:59:53.410Z,3.75
2022-09-21T10:02:22.346Z,3.08
2022-09-21T10:05:11.078Z,3.67
2022-09-21T10:07:39.552Z,2.67
2022-09-21T10:10:24.620Z,2.85
2022-09-21T10:12:52.684Z,2.67
2022-09-21T10:15:20.486Z,2.97
2022-09-21T10:17:47.652Z,3.35
2022-09-21T10:20:16.051Z,2.88
2022-09-21T10:22:46.719Z,3.22
2022-09-21T10:25:16.827Z,2.90
2022-09-21T10:27:46.921Z,2.67
2022-09-21T10:30:31.960Z,2.70
2022-09-21T10:32:59.035Z,2.63
2022-09-21T10:35:27.120Z,3.10
2022-09-21T10:38:10.276Z,2.72
2022-09-21T10:40:38.261Z,2.90
2022-09-21T10:43:05.098Z,2.70
2022-09-21T10:45:32.711Z,2.72
2022-09-21T10:48:16.647Z,2.60
2022-09-21T10:50:44.744Z,2.67
2022-09-21T10:53:14.830Z,2.78
2022-09-21T10:56:04.916Z,2.58
2022-09-21T10:58:39.448Z,2.72
2022-09-21T11:01:22.743Z,2.40
2022-09-21T11:03:55.251Z,3.03
2022-09-21T11:06:24.495Z,3.00
2022-09-21T11:08:51.102Z,2.90
2022-09-21T11:11:25.664Z,2.83
2022-09-21T11:14:14.147Z,2.70
2022-09-21T11:16:43.750Z,2.38
2022-09-21T11:19:17.738Z,2.60
2022-09-21T11:21:46.930Z,2.55
2022-09-21T11:24:13.471Z,2.60
2022-09-21T11:26:44.838Z,2.58
2022-09-21T11:29:18.317Z,2.30
2022-09-21T11:32:07.921Z,2.72
2022-09-21T11:34:46.978Z,2.80
2022-09-21T11:37:40.941Z,2.63
2022-09-21T11:40:26.284Z,2.10
2022-09-21T11:43:16.171Z,2.22
2022-09-21T11:46:02.434Z,2.50
2022-09-21T11:48:38.376Z,2.53
2022-09-21T11:51:19.926Z,2.83
2022-09-21T11:54:03.773Z,2.42
2022-09-21T11:56:35.220Z,2.22
2022-09-21T11:59:13.622Z,2.33
2022-09-21T12:01:55.644Z,2.38
2022-09-21T12:04:48.595Z,2.10
2022-09-21T12:07:33.514Z,2.13
2022-09-21T12:10:14.022Z,2.75
2022-09-21T12:12:40.507Z,2.40
2022-09-21T12:15:12.005Z,2.20
2022-09-21T12:17:44.029Z,2.10
2022-09-21T12:20:20.853Z,2.03
2022-09-21T12:22:48.621Z,2.10
2022-09-21T12:25:20.475Z,2.55
2022-09-21T12:27:51.660Z,2.10
2022-09-21T12:30:23.100Z,2.15
2022-09-21T12:32:51.507Z,2.78
2022-09-21T12:35:21.090Z,2.30
2022-09-21T12:37:54.559Z,1.88
2022-09-21T12:40:43.354Z,2.22
2022-09-21T12:43:22.143Z,2.20
2022-09-21T12:45:52.381Z,2.10
2022-09-21T12:48:35.229Z,1.60
2022-09-21T12:51:05.886Z,2.13
2022-09-21T12:53:35.189Z,2.28
2022-09-21T12:56:27.942Z,2.63
2022-09-21T12:58:55.168Z,1.70
2022-09-21T13:01:26.376Z,1.63
2022-09-21T13:03:56.124Z,1.73
2022-09-21T13:06:34.437Z,1.65
2022-09-21T13:09:03.361Z,1.60
2022-09-21T13:11:33.089Z,1.52
2022-09-21T13:14:02.126Z,1.70
2022-09-21T13:16:32.981Z,2.25
2022-09-21T13:19:21.559Z,1.30
2022-09-21T13:22:14.609Z,1.60
2022-09-21T13:24:42.558Z,1.48
2022-09-21T13:27:09.220Z,1.30
2022-09-21T13:29:38.071Z,1.55
2022-09-21T13:32:05.188Z,1.40
2022-09-21T13:34:36.240Z,1.40
2022-09-21T13:37:11.947Z,1.60
2022-09-21T13:39:58.768Z,1.48
2022-09-21T13:42:31.187Z,1.42
2022-09-21T13:44:58.602Z,1.30
2022-09-21T13:47:35.868Z,1.30
2022-09-21T13:50:18.186Z,1.80
2022-09-21T13:52:46.310Z,1.95
2022-09-21T13:55:28.549Z,1.50
2022-09-21T13:57:55.893Z,1.20
2022-09-21T14:00:22.459Z,1.20
2022-09-21T14:02:49.220Z,1.40
2022-09-21T14:05:35.863Z,1.63
2022-09-21T14:08:17.393Z,1.58
2022-09-21T14:10:57.383Z,1.40
2022-09-21T14:13:45.354Z,1.48
2022-09-21T14:16:47.330Z,1.50
2022-09-21T14:19:16.975Z,1.58
2022-09-21T14:22:02.343Z,1.45
2022-09-21T14:24:38.397Z,1.38
2022-09-21T14:27:25.408Z,1.35
2022-09-21T14:30:05.613Z,1.40
2022-09-21T14:32:39.520Z,1.60
2022-09-21T14:35:11.203Z,1.48
2022-09-21T14:37:41.497Z,1.10
2022-09-21T14:40:19.777Z,1.17
2022-09-21T14:42:47.440Z,1.67
2022-09-21T14:45:18.168Z,1.40
2022-09-21T14:47:51.776Z,1.30
2022-09-21T14:50:29.313Z,1.15
2022-09-21T14:53:14.721Z,1.70
2022-09-21T14:55:43.903Z,1.20
2022-09-21T14:58:30.294Z,1.20
2022-09-21T15:01:15.188Z,1.20
2022-09-21T15:03:49.027Z,1.50
2022-09-21T15:06:37.156Z,1.83
2022-09-21T15:09:34.734Z,1.20
2022-09-21T15:12:09.371Z,1.33
2022-09-21T15:14:43.416Z,1.13
2022-09-21T15:19:39.453Z,1.33
2022-09-21T15:22:12.029Z,1.30
2022-09-21T15:24:48.078Z,1.27
2022-09-21T15:27:16.089Z,1.20
2022-09-21T15:29:45.179Z,1.48
2022-09-21T15:32:24.003Z,1.33
2022-09-21T15:35:05.125Z,0.95
2022-09-21T15:37:35.266Z,1.30
2022-09-21T15:40:03.049Z,1.30
2022-09-21T15:42:36.310Z,1.70
2022-09-21T15:45:20.803Z,1.03
2022-09-21T15:47:47.644Z,1.10
2022-09-21T15:50:14.723Z,1.20
2022-09-21T15:52:52.507Z,1.52
2022-09-21T15:55:21.590Z,1.20
2022-09-21T15:57:53.186Z,1.20
2022-09-21T16:00:22.239Z,1.40
2022-09-21T16:02:56.087Z,1.27
2022-09-21T16:05:24.173Z,1.05
2022-09-21T16:08:03.720Z,1.60
2022-09-21T16:10:30.164Z,1.30
2022-09-21T16:13:24.086Z,0.80
2022-09-21T16:16:00.561Z,1.40
2022-09-21T16:18:35.234Z,1.13
2022-09-21T16:21:08.155Z,1.17
2022-09-21T16:23:35.939Z,1.15
2022-09-21T16:26:02.671Z,1.40
2022-09-21T16:28:34.367Z,1.30
2022-09-21T16:31:00.977Z,1.40
2022-09-21T16:33:39.952Z,1.27
2022-09-21T16:36:33.900Z,1.40
2022-09-21T16:39:01.448Z,1.30
2022-09-21T16:41:35.751Z,1.38
2022-09-21T16:44:03.189Z,1.70
2022-09-21T16:46:31.834Z,1.42
2022-09-21T16:49:00.744Z,1.50
2022-09-21T16:51:28.191Z,1.45
2022-09-21T16:53:55.696Z,1.27
2022-09-21T16:56:22.467Z,1.40
2022-09-21T16:58:49.112Z,1.25
2022-09-21T17:01:18.696Z,1.80
2022-09-21T17:03:47.183Z,1.30
2022-09-21T17:06:17.888Z,1.50
2022-09-21T17:08:44.975Z,1.70
2022-09-21T17:11:11.613Z,1.48
2022-09-21T17:13:38.143Z,1.40
2022-09-21T17:16:04.871Z,1.58
2022-09-21T17:18:31.697Z,1.35
2022-09-21T17:20:58.236Z,1.20
2022-09-21T17:23:29.140Z,1.10
2022-09-21T17:25:56.049Z,1.67
2022-09-21T17:28:26.265Z,1.30
2022-09-21T17:30:53.714Z,1.33
2022-09-21T17:33:21.490Z,1.58
2022-09-21T17:35:50.757Z,1.30
2022-09-21T17:38:18.166Z,1.58
2022-09-21T17:40:44.897Z,1.25
2022-09-21T17:43:33.213Z,1.52
2022-09-21T17:46:00.925Z,1.38
2022-09-21T17:48:31.816Z,1.40
2022-09-21T17:51:00.674Z,1.40
2022-09-21T17:53:40.436Z,1.45
2022-09-21T17:56:21.428Z,1.50
2022-09-21T17:58:59.982Z,1.20
2022-09-21T18:01:29.408Z,1.40
2022-09-21T18:03:57.206Z,1.30
2022-09-21T18:06:24.144Z,2.13
2022-09-21T18:08:50.717Z,1.10
2022-09-21T18:11:20.236Z,1.38
2022-09-21T18:13:49.878Z,1.20
2022-09-21T18:16:27.043Z,1.55
2022-09-21T18:19:19.927Z,1.15
2022-09-21T18:21:50.597Z,1.30
2022-09-21T18:24:17.069Z,1.10
2022-09-21T18:26:43.935Z,1.13
2022-09-21T18:29:39.309Z,1.40
2022-09-21T18:32:23.305Z,1.38
2022-09-21T18:35:02.192Z,1.85
2022-09-21T18:37:34.710Z,1.13
2022-09-21T18:40:08.939Z,1.38
2022-09-21T18:42:54.138Z,1.73
2022-09-21T18:45:21.238Z,1.40
2022-09-21T18:47:55.887Z,1.27
2022-09-21T18:50:25.365Z,1.27
2022-09-21T18:52:55.109Z,1.35
2022-09-21T18:55:28.865Z,1.40
2022-09-21T18:57:56.691Z,1.52
2022-09-21T19:00:31.713Z,1.35
2022-09-21T19:03:17.029Z,1.30
2022-09-21T19:06:06.776Z,1.55
2022-09-21T19:08:37.207Z,1.10
2022-09-21T19:11:16.469Z,1.10
2022-09-21T19:13:43.156Z,1.25
2022-09-21T19:16:11.594Z,1.30
2022-09-21T19:18:38.306Z,1.10
2022-09-21T19:21:23.950Z,1.75
2022-09-21T19:24:16.886Z,1.30
2022-09-21T19:27:03.438Z,1.38
2022-09-21T19:29:34.363Z,1.55
2022-09-21T19:32:01.159Z,1.20
2022-09-21T19:34:28.255Z,1.75
2022-09-21T19:36:57.277Z,0.85
2022-09-21T19:39:23.995Z,1.77
2022-09-21T19:41:55.087Z,1.15
2022-09-21T19:44:34.649Z,1.10
2022-09-21T19:47:09.656Z,1.08
2022-09-21T19:49:47.374Z,1.45
2022-09-21T19:52:18.450Z,1.30
2022-09-21T19:55:04.208Z,1.60
2022-09-21T19:57:49.311Z,1.52
2022-09-21T20:00:17.125Z,1.40
2022-09-21T20:02:49.042Z,1.40
2022-09-21T20:05:28.016Z,1.27
2022-09-21T20:08:02.099Z,1.35
2022-09-21T20:10:42.273Z,1.50
2022-09-21T20:13:20.890Z,1.30
2022-09-21T20:16:06.173Z,1.42
2022-09-21T20:18:55.007Z,1.20
2022-09-21T20:21:22.346Z,1.60
2022-09-21T20:23:56.550Z,1.33
2022-09-21T20:26:24.847Z,1.40
2022-09-21T20:28:54.866Z,1.20
2022-09-21T20:31:22.880Z,1.30
2022-09-21T20:33:49.741Z,1.30
2022-09-21T20:36:16.462Z,1.52
2022-09-21T20:38:43.394Z,1.60
2022-09-21T20:41:14.160Z,1.45
2022-09-21T20:43:40.964Z,1.20
2022-09-21T20:46:10.033Z,1.40
2022-09-21T20:48:38.366Z,1.17
2022-09-21T20:51:06.139Z,1.40
2022-09-21T20:53:33.768Z,1.50
2022-09-21T20:56:03.208Z,1.40
2022-09-21T20:58:35.372Z,1.45
2022-09-21T21:01:05.920Z,1.30
2022-09-21T21:03:32.652Z,1.63
2022-09-21T21:06:12.714Z,1.60
2022-09-21T21:08:39.449Z,1.38
2022-09-21T21:11:10.683Z,1.48
2022-09-21T21:13:37.477Z,1.40
2022-09-21T21:16:08.271Z,2.03
2022-09-21T21:18:38.850Z,1.90
2022-09-21T21:21:05.457Z,1.40
2022-09-21T21:23:52.003Z,2.33
2022-09-21T21:26:18.568Z,1.60
2022-09-21T21:28:48.117Z,1.30
2022-09-21T21:31:19.452Z,1.98
2022-09-21T21:33:47.955Z,1.98
2022-09-21T21:36:15.076Z,2.15
2022-09-21T21:38:43.138Z,1.70
2022-09-21T21:41:12.752Z,1.55
2022-09-21T21:43:39.858Z,1.58
2022-09-21T21:46:08.526Z,1.63
2022-09-21T21:48:36.135Z,2.28
2022-09-21T21:51:03.621Z,1.52
2022-09-21T21:53:32.855Z,1.88
2022-09-21T21:56:02.360Z,1.92
2022-09-21T21:58:28.863Z,1.95
2022-09-21T22:00:55.500Z,1.70
2022-09-21T22:03:22.092Z,1.88
2022-09-21T22:05:48.601Z,1.85
2022-09-21T22:08:15.166Z,2.55
2022-09-21T22:10:48.215Z,1.60
2022-09-21T22:13:15.713Z,1.73
2022-09-21T22:15:42.525Z,1.98
2022-09-21T22:18:09.019Z,2.22
2022-09-21T22:20:35.692Z,1.83
2022-09-21T22:23:03.985Z,1.80
2022-09-21T22:25:30.515Z,1.73
2022-09-21T22:27:57.067Z,2.00
2022-09-21T22:30:26.106Z,1.90
2022-09-21T22:32:52.602Z,2.00
2022-09-21T22:35:19.312Z,2.15
2022-09-21T22:37:45.809Z,2.30
2022-09-21T22:40:12.624Z,2.03
2022-09-21T22:42:39.749Z,1.75
2022-09-21T22:45:06.485Z,2.08
2022-09-21T22:47:33.198Z,1.88
2022-09-21T22:49:59.759Z,2.08
2022-09-21T22:52:26.248Z,2.08
2022-09-21T22:54:53.576Z,1.95
2022-09-21T22:57:20.048Z,2.00
2022-09-21T22:59:46.640Z,1.90
2022-09-21T23:02:13.205Z,1.83
2022-09-21T23:04:39.755Z,2.20
2022-09-21T23:07:06.275Z,2.25
2022-09-21T23:09:32.850Z,2.17
2022-09-21T23:11:59.702Z,2.45
2022-09-21T23:14:26.266Z,2.08
2022-09-21T23:16:53.157Z,1.85
2022-09-21T23:19:19.882Z,2.13
2022-09-21T23:21:52.048Z,2.28
2022-09-21T23:24:19.510Z,2.47
2022-09-21T23:26:46.194Z,2.10
2022-09-21T23:29:14.821Z,2.10
2022-09-21T23:31:45.008Z,2.20
2022-09-21T23:34:14.732Z,2.45
2022-09-21T23:36:41.827Z,2.00
2022-09-21T23:39:11.407Z,2.17
2022-09-21T23:41:38.977Z,2.08
2022-09-21T23:44:05.959Z,1.90
2022-09-21T23:46:34.244Z,1.77
2022-09-21T23:49:01.373Z,2.20
2022-09-21T23:51:29.878Z,1.90
2022-09-21T23:53:56.822Z,2.15
2022-09-21T23:56:23.529Z,2.15
2022-09-21T23:58:50.119Z,1.80
